createdAt,value
2023-02-04T00:01:15.536Z,4.57
2023-02-04T00:04:19.306Z,4.33
2023-02-04T00:07:25.474Z,4.80
2023-02-04T00:10:29.672Z,5.07
2023-02-04T00:13:34.625Z,4.70
2023-02-04T00:16:38.001Z,4.30
2023-02-04T00:19:42.920Z,5.40
2023-02-04T00:22:47.558Z,5.03
2023-02-04T00:25:50.853Z,5.27
2023-02-04T00:28:55.727Z,4.90
2023-02-04T00:32:02.441Z,4.60
2023-02-04T00:35:17.419Z,5.50
2023-02-04T00:38:27.994Z,4.27
2023-02-04T00:41:33.832Z,4.87
2023-02-04T00:44:43.981Z,3.90
2023-02-04T00:47:48.100Z,4.03
2023-02-04T00:50:51.224Z,3.93
2023-02-04T00:53:59.672Z,4.03
2023-02-04T00:57:03.068Z,3.77
2023-02-04T01:00:12.051Z,4.07
2023-02-04T01:03:17.387Z,3.87
2023-02-04T01:06:23.520Z,4.00
2023-02-04T01:09:27.893Z,4.43
2023-02-04T01:12:31.247Z,3.90
2023-02-04T01:15:39.640Z,4.07
2023-02-04T01:18:43.171Z,4.03
2023-02-04T01:21:48.037Z,3.17
2023-02-04T01:24:51.211Z,4.07
2023-02-04T01:28:13.056Z,3.70
2023-02-04T01:31:17.905Z,4.00
2023-02-04T01:34:21.316Z,3.63
2023-02-04T01:37:27.684Z,4.47
2023-02-04T01:40:34.441Z,4.03
2023-02-04T01:43:37.603Z,4.67
2023-02-04T01:46:42.160Z,4.37
2023-02-04T01:49:45.622Z,4.27
2023-02-04T01:52:49.905Z,4.70
2023-02-04T01:55:54.294Z,4.20
2023-02-04T01:58:59.398Z,4.23
2023-02-04T02:02:04.112Z,4.00
2023-02-04T02:05:08.501Z,3.73
2023-02-04T02:08:15.573Z,3.93
2023-02-04T02:11:18.952Z,4.10
2023-02-04T02:14:22.582Z,4.13
2023-02-04T02:17:29.210Z,3.97
2023-02-04T02:20:33.138Z,4.70
2023-02-04T02:23:48.389Z,4.50
2023-02-04T02:26:56.088Z,4.30
2023-02-04T02:30:01.207Z,4.00
2023-02-04T02:33:06.167Z,4.13
2023-02-04T02:36:10.298Z,3.83
2023-02-04T02:39:16.186Z,3.77
2023-02-04T02:42:20.682Z,3.60
2023-02-04T02:45:30.587Z,4.10
2023-02-04T02:48:34.026Z,4.10
2023-02-04T02:51:37.620Z,4.07
2023-02-04T02:54:43.702Z,4.03
2023-02-04T02:57:50.734Z,4.07
2023-02-04T03:00:56.730Z,4.07
2023-02-04T03:04:02.731Z,4.10
2023-02-04T03:07:06.809Z,4.00
2023-02-04T03:10:13.683Z,3.80
2023-02-04T03:13:18.315Z,4.10
2023-02-04T03:16:21.835Z,3.93
2023-02-04T03:19:26.795Z,4.33
2023-02-04T03:22:32.435Z,4.20
2023-02-04T03:25:37.858Z,4.17
2023-02-04T03:28:41.876Z,3.73
2023-02-04T03:31:46.179Z,3.93
2023-02-04T03:34:49.451Z,3.70
2023-02-04T03:37:52.850Z,3.90
2023-02-04T03:40:57.441Z,3.33
2023-02-04T03:44:01.620Z,3.60
2023-02-04T03:47:04.744Z,3.73
2023-02-04T03:50:08.331Z,3.60
2023-02-04T03:53:12.982Z,3.60
2023-02-04T03:56:17.570Z,3.80
2023-02-04T03:59:20.960Z,3.63
2023-02-04T04:02:24.439Z,3.23
2023-02-04T04:05:28.618Z,3.80
2023-02-04T04:08:34.850Z,3.83
2023-02-04T04:11:39.316Z,3.50
2023-02-04T04:14:42.496Z,3.83
2023-02-04T04:17:45.748Z,3.40
2023-02-04T04:20:48.815Z,3.70
2023-02-04T04:23:51.885Z,4.07
2023-02-04T04:26:59.044Z,3.77
2023-02-04T04:30:02.524Z,3.30
2023-02-04T04:33:05.875Z,3.60
2023-02-04T04:36:09.530Z,3.80
2023-02-04T04:39:12.592Z,3.50
2023-02-04T04:42:17.337Z,3.07
2023-02-04T04:45:21.362Z,3.40
2023-02-04T04:48:25.534Z,3.30
2023-02-04T04:51:31.815Z,3.47
2023-02-04T04:54:35.002Z,3.30
2023-02-04T04:57:39.935Z,3.67
2023-02-04T05:00:43.116Z,3.47
2023-02-04T05:03:47.953Z,3.73
2023-02-04T05:06:51.054Z,3.30
2023-02-04T05:09:54.135Z,3.57
2023-02-04T05:12:58.463Z,3.50
2023-02-04T05:16:01.657Z,3.27
2023-02-04T05:19:04.809Z,3.40
2023-02-04T05:22:07.932Z,4.00
2023-02-04T05:25:11.356Z,4.13
2023-02-04T05:28:16.035Z,4.33
2023-02-04T05:31:19.196Z,3.70
2023-02-04T05:34:24.699Z,4.50
2023-02-04T05:37:30.063Z,4.17
2023-02-04T05:40:33.637Z,3.70
2023-02-04T05:43:38.238Z,3.87
2023-02-04T05:46:41.332Z,3.30
2023-02-04T05:49:44.951Z,3.67
2023-02-04T05:52:48.062Z,3.90
2023-02-04T05:55:51.169Z,3.47
2023-02-04T05:58:56.053Z,4.20
2023-02-04T06:01:59.490Z,4.47
2023-02-04T06:05:02.586Z,5.17
2023-02-04T06:08:06.621Z,4.10
2023-02-04T06:11:09.933Z,4.67
2023-02-04T06:14:14.502Z,4.67
2023-02-04T06:17:17.647Z,4.93
2023-02-04T06:20:21.130Z,4.33
2023-02-04T06:23:26.656Z,3.47
2023-02-04T06:26:30.902Z,3.97
2023-02-04T06:29:35.419Z,4.13
2023-02-04T06:32:43.467Z,4.17
2023-02-04T06:35:46.829Z,4.07
2023-02-04T06:38:50.485Z,4.47
2023-02-04T06:41:53.495Z,4.83
2023-02-04T06:44:58.178Z,4.17
2023-02-04T06:48:01.230Z,4.00
2023-02-04T06:51:04.776Z,4.50
2023-02-04T06:54:08.187Z,4.73
2023-02-04T06:57:12.312Z,4.97
2023-02-04T07:00:17.369Z,4.07
2023-02-04T07:03:20.407Z,4.10
2023-02-04T07:06:23.457Z,3.97
2023-02-04T07:09:27.440Z,5.40
2023-02-04T07:12:30.775Z,5.03
2023-02-04T07:15:35.405Z,9.27
2023-02-04T07:18:38.556Z,8.60
2023-02-04T07:21:41.695Z,6.27
2023-02-04T07:24:44.827Z,6.03
2023-02-04T07:27:48.032Z,5.40
2023-02-04T07:30:53.039Z,5.17
2023-02-04T07:33:56.816Z,5.97
2023-02-04T07:36:59.963Z,4.33
2023-02-04T07:40:03.237Z,3.80
2023-02-04T07:43:06.357Z,4.63
2023-02-04T07:46:13.063Z,5.43
2023-02-04T07:49:17.163Z,5.27
2023-02-04T07:52:20.653Z,4.43
2023-02-04T07:55:23.881Z,4.70
2023-02-04T07:58:27.048Z,4.80
2023-02-04T08:01:34.042Z,4.40
2023-02-04T08:04:38.049Z,5.73
2023-02-04T08:07:41.786Z,4.13
2023-02-04T08:10:49.938Z,7.60
2023-02-04T08:13:53.505Z,5.13
2023-02-04T08:16:58.187Z,5.50
2023-02-04T08:20:01.473Z,5.13
2023-02-04T08:23:04.752Z,4.57
2023-02-04T08:26:08.199Z,4.03
2023-02-04T08:29:11.849Z,5.17
2023-02-04T08:32:16.738Z,4.30
2023-02-04T08:35:20.080Z,4.50
2023-02-04T08:38:26.409Z,4.80
2023-02-04T08:41:29.585Z,5.10
2023-02-04T08:44:35.102Z,4.17
2023-02-04T08:47:39.912Z,4.23
2023-02-04T08:50:43.488Z,4.63
2023-02-04T08:53:46.603Z,5.50
2023-02-04T08:56:49.959Z,4.47
2023-02-04T08:59:53.304Z,4.67
2023-02-04T09:02:57.980Z,4.70
2023-02-04T09:06:01.075Z,4.60
2023-02-04T09:09:04.466Z,4.13
2023-02-04T09:12:07.876Z,3.93
2023-02-04T09:15:12.560Z,4.00
2023-02-04T09:18:19.088Z,4.23
2023-02-04T09:21:22.347Z,5.13
2023-02-04T09:24:25.588Z,4.63
2023-02-04T09:27:28.622Z,4.00
2023-02-04T09:30:34.787Z,4.93
2023-02-04T09:33:39.832Z,5.20
2023-02-04T09:36:43.212Z,4.47
2023-02-04T09:39:46.885Z,4.00
2023-02-04T09:42:51.691Z,3.40
2023-02-04T09:45:55.975Z,3.93
2023-02-04T09:49:03.441Z,3.93
2023-02-04T09:52:11.977Z,4.40
2023-02-04T09:55:17.103Z,4.53
2023-02-04T09:58:22.808Z,3.63
2023-02-04T10:01:28.208Z,4.23
2023-02-04T10:04:33.879Z,3.43
2023-02-04T10:07:36.996Z,3.70
2023-02-04T10:10:40.922Z,3.77
2023-02-04T10:13:47.763Z,3.27
2023-02-04T10:16:58.633Z,3.67
2023-02-04T10:20:04.159Z,3.60
2023-02-04T10:23:12.865Z,4.13
2023-02-04T10:26:29.652Z,4.37
2023-02-04T10:29:33.027Z,5.33
2023-02-04T10:32:36.640Z,5.90
2023-02-04T10:35:48.229Z,5.37
2023-02-04T10:39:01.370Z,4.20
2023-02-04T10:42:06.300Z,4.37
2023-02-04T10:45:24.617Z,3.73
2023-02-04T10:48:30.142Z,3.63
2023-02-04T10:51:35.018Z,3.00
2023-02-04T10:54:40.003Z,4.43
2023-02-04T10:57:47.696Z,3.60
2023-02-04T11:00:51.136Z,3.50
2023-02-04T11:03:57.506Z,3.90
2023-02-04T11:07:02.468Z,3.40
2023-02-04T11:10:06.540Z,3.23
2023-02-04T11:13:28.420Z,3.10
2023-02-04T11:16:35.732Z,3.30
2023-02-04T11:19:40.933Z,3.10
2023-02-04T11:22:49.512Z,3.27
2023-02-04T11:26:08.633Z,2.57
2023-02-04T11:29:30.082Z,3.53
2023-02-04T11:32:37.887Z,3.50
2023-02-04T11:36:14.859Z,3.40
2023-02-04T11:39:20.001Z,3.70
2023-02-04T11:42:28.892Z,3.63
2023-02-04T11:45:36.264Z,2.87
2023-02-04T11:48:41.588Z,2.83
2023-02-04T11:51:46.643Z,2.70
2023-02-04T11:55:01.235Z,3.20
2023-02-04T11:58:05.454Z,3.10
2023-02-04T12:01:21.178Z,3.60
2023-02-04T12:04:26.291Z,3.63
2023-02-04T12:07:35.875Z,3.37
2023-02-04T12:10:44.652Z,2.90
2023-02-04T12:13:52.242Z,3.43
2023-02-04T12:16:56.490Z,2.90
2023-02-04T12:20:00.718Z,3.50
2023-02-04T12:23:04.373Z,3.53
2023-02-04T12:26:09.077Z,3.10
2023-02-04T12:29:12.261Z,3.03
2023-02-04T12:32:15.700Z,3.03
2023-02-04T12:35:19.598Z,3.37
2023-02-04T12:38:23.443Z,3.27
2023-02-04T12:41:28.409Z,3.40
2023-02-04T12:44:32.115Z,3.73
2023-02-04T12:47:35.294Z,3.50
2023-02-04T12:50:39.418Z,3.63
2023-02-04T12:53:42.525Z,3.70
2023-02-04T12:56:49.342Z,3.53
2023-02-04T12:59:52.409Z,3.47
2023-02-04T13:02:55.991Z,3.40
2023-02-04T13:05:59.609Z,3.70
2023-02-04T13:09:06.512Z,3.37
2023-02-04T13:12:16.486Z,2.90
2023-02-04T13:15:22.861Z,3.23
2023-02-04T13:18:28.711Z,4.10
2023-02-04T13:21:32.305Z,3.53
2023-02-04T13:24:39.964Z,3.67
2023-02-04T13:27:46.127Z,3.40
2023-02-04T13:30:49.651Z,3.57
2023-02-04T13:33:52.820Z,4.70
2023-02-04T13:36:56.021Z,4.43
2023-02-04T13:39:59.071Z,4.10
2023-02-04T13:43:03.462Z,3.43
2023-02-04T13:46:06.679Z,3.47
2023-02-04T13:49:09.863Z,3.70
2023-02-04T13:52:13.475Z,3.20
2023-02-04T13:55:16.675Z,3.20
2023-02-04T13:58:21.076Z,3.40
2023-02-04T14:01:24.179Z,3.00
2023-02-04T14:04:27.632Z,3.30
2023-02-04T14:07:31.159Z,3.00
2023-02-04T14:10:38.555Z,4.17
2023-02-04T14:13:43.373Z,3.57
2023-02-04T14:16:46.405Z,2.60
2023-02-04T14:19:49.451Z,3.00
2023-02-04T14:22:52.511Z,3.57
2023-02-04T14:25:55.584Z,3.43
2023-02-04T14:28:59.985Z,3.07
2023-02-04T14:32:03.327Z,3.13
2023-02-04T14:35:08.920Z,3.57
2023-02-04T14:38:13.393Z,3.43
2023-02-04T14:41:19.989Z,3.63
2023-02-04T14:44:25.732Z,3.47
2023-02-04T14:47:29.094Z,3.43
2023-02-04T14:50:32.595Z,3.30
2023-02-04T14:53:36.020Z,3.70
2023-02-04T14:56:39.289Z,3.70
2023-02-04T14:59:44.148Z,3.37
2023-02-04T15:02:47.730Z,3.20
2023-02-04T15:05:50.810Z,3.30
2023-02-04T15:08:54.133Z,3.23
2023-02-04T15:11:57.579Z,3.60
2023-02-04T15:15:02.105Z,3.90
2023-02-04T15:18:06.051Z,3.37
2023-02-04T15:21:09.171Z,3.20
2023-02-04T15:24:29.272Z,3.50
2023-02-04T15:27:44.082Z,3.20
2023-02-04T15:30:48.847Z,3.53
2023-02-04T15:33:53.717Z,3.00
2023-02-04T15:36:57.010Z,3.43
2023-02-04T15:40:03.738Z,3.80
2023-02-04T15:43:09.952Z,3.60
2023-02-04T15:46:17.008Z,3.50
2023-02-04T15:49:31.671Z,3.67
2023-02-04T15:52:35.032Z,3.97
2023-02-04T15:55:38.232Z,3.30
2023-02-04T15:58:41.380Z,3.73
2023-02-04T16:01:46.109Z,3.30
2023-02-04T16:04:50.258Z,3.77
2023-02-04T16:07:53.436Z,3.47
2023-02-04T16:10:56.581Z,3.40
2023-02-04T16:14:00.117Z,3.67
2023-02-04T16:17:07.001Z,3.93
2023-02-04T16:20:12.084Z,3.93
2023-02-04T16:23:15.486Z,3.90
2023-02-04T16:26:28.207Z,3.53
2023-02-04T16:29:32.426Z,3.50
2023-02-04T16:32:37.129Z,3.90
2023-02-04T16:35:59.929Z,3.70
2023-02-04T16:39:05.936Z,3.90
2023-02-04T16:42:10.077Z,4.33
2023-02-04T16:45:13.559Z,4.10
2023-02-04T16:48:21.345Z,3.90
2023-02-04T16:51:24.928Z,4.13
2023-02-04T16:54:28.577Z,3.90
2023-02-04T16:57:31.936Z,4.03
2023-02-04T17:00:36.047Z,4.13
2023-02-04T17:03:43.068Z,4.40
2023-02-04T17:06:47.664Z,3.63
2023-02-04T17:09:52.519Z,4.17
2023-02-04T17:12:56.233Z,6.77
2023-02-04T17:16:01.955Z,4.43
2023-02-04T17:19:24.326Z,4.23
2023-02-04T17:22:39.734Z,4.60
2023-02-04T17:25:52.909Z,5.30
2023-02-04T17:28:59.295Z,7.73
2023-02-04T17:32:19.798Z,9.90
2023-02-04T17:35:27.725Z,6.37
2023-02-04T17:38:31.800Z,5.23
2023-02-04T17:41:36.115Z,5.53
2023-02-04T17:44:40.973Z,5.23
2023-02-04T17:47:50.691Z,4.80
2023-02-04T17:50:57.594Z,6.50
2023-02-04T17:54:01.587Z,5.33
2023-02-04T17:57:20.970Z,4.90
2023-02-04T18:00:33.364Z,6.23
2023-02-04T18:03:37.982Z,5.50
2023-02-04T18:06:50.237Z,5.13
2023-02-04T18:09:54.024Z,4.50
2023-02-04T18:12:58.249Z,5.17
2023-02-04T18:16:11.787Z,4.70
2023-02-04T18:19:21.470Z,4.90
2023-02-04T18:22:28.568Z,5.23
2023-02-04T18:25:35.209Z,4.70
2023-02-04T18:28:47.821Z,4.67
2023-02-04T18:32:02.879Z,4.50
2023-02-04T18:35:44.117Z,4.37
2023-02-04T18:38:52.400Z,4.90
2023-02-04T18:41:59.908Z,4.97
2023-02-04T18:45:24.238Z,5.13
2023-02-04T18:49:09.390Z,4.70
2023-02-04T18:52:19.996Z,4.77
2023-02-04T18:55:34.845Z,5.53
2023-02-04T18:59:27.476Z,5.83
2023-02-04T19:02:48.533Z,5.50
2023-02-04T19:06:06.331Z,6.47
2023-02-04T19:09:19.558Z,6.77
2023-02-04T19:12:24.310Z,4.90
2023-02-04T19:15:42.807Z,5.67
2023-02-04T19:18:47.036Z,5.70
2023-02-04T19:21:53.513Z,6.40
2023-02-04T19:25:59.991Z,5.87
2023-02-04T19:29:42.675Z,5.03
2023-02-04T19:32:55.885Z,4.73
2023-02-04T19:36:03.312Z,4.60
2023-02-04T19:39:30.715Z,4.43
2023-02-04T19:42:37.024Z,4.90
2023-02-04T19:46:02.590Z,8.50
2023-02-04T19:49:25.107Z,8.30
2023-02-04T19:52:37.605Z,5.37
2023-02-04T19:55:44.197Z,6.00
2023-02-04T19:58:47.675Z,8.43
2023-02-04T20:02:01.908Z,8.83
2023-02-04T20:05:20.230Z,4.73
2023-02-04T20:08:48.129Z,4.57
2023-02-04T20:12:06.082Z,5.23
2023-02-04T20:15:18.621Z,4.90
2023-02-04T20:18:29.794Z,5.07
2023-02-04T20:21:36.781Z,4.93
2023-02-04T20:24:44.934Z,4.47
2023-02-04T20:27:52.466Z,4.60
2023-02-04T20:30:56.671Z,4.77
2023-02-04T20:34:01.694Z,4.00
2023-02-04T20:37:16.277Z,4.87
2023-02-04T20:40:29.998Z,5.03
2023-02-04T20:43:37.525Z,4.77
2023-02-04T20:46:42.738Z,4.90
2023-02-04T20:50:01.398Z,5.77
2023-02-04T20:53:31.818Z,5.33
2023-02-04T20:56:42.641Z,8.10
2023-02-04T20:59:49.512Z,9.80
2023-02-04T21:02:58.182Z,12.07
2023-02-04T21:06:17.409Z,7.03
2023-02-04T21:17:07.149Z,6.30
2023-02-04T21:20:27.076Z,8.00
2023-02-04T21:23:37.734Z,10.67
2023-02-04T21:26:46.618Z,6.43
2023-02-04T21:29:55.009Z,6.47
2023-02-04T21:33:05.533Z,5.23
2023-02-04T21:36:15.142Z,7.33
2023-02-04T21:39:21.693Z,5.47
2023-02-04T21:42:26.199Z,5.20
2023-02-04T21:45:40.912Z,5.53
2023-02-04T21:48:47.966Z,5.30
2023-02-04T21:51:52.654Z,5.30
2023-02-04T21:55:33.799Z,6.73
2023-02-04T21:58:53.122Z,7.10
2023-02-04T22:02:19.417Z,7.10
2023-02-04T22:05:28.635Z,8.27
2023-02-04T22:08:37.179Z,6.57
2023-02-04T22:11:43.268Z,6.60
2023-02-04T22:14:48.341Z,6.53
2023-02-04T22:18:00.194Z,6.07
2023-02-04T22:21:13.405Z,5.33
2023-02-04T22:24:18.838Z,5.83
2023-02-04T22:27:26.006Z,6.10
2023-02-04T22:30:39.541Z,10.33
2023-02-04T22:34:02.779Z,11.10
2023-02-04T22:37:18.729Z,13.80
2023-02-04T22:40:23.130Z,13.87
2023-02-04T22:43:41.003Z,12.40
2023-02-04T22:46:47.347Z,10.50
2023-02-04T22:49:50.839Z,9.37
2023-02-04T22:52:57.043Z,7.20
2023-02-04T22:56:00.392Z,7.27
2023-02-04T22:59:06.282Z,8.00
2023-02-04T23:02:12.493Z,6.63
2023-02-04T23:05:16.074Z,6.10
2023-02-04T23:08:19.502Z,7.30
2023-02-04T23:11:25.083Z,7.30
2023-02-04T23:14:29.747Z,6.67
2023-02-04T23:17:33.507Z,6.33
2023-02-04T23:20:41.772Z,5.63
2023-02-04T23:23:45.323Z,7.10
2023-02-04T23:26:48.825Z,7.80
2023-02-04T23:29:54.275Z,7.03
2023-02-04T23:32:58.617Z,8.80
2023-02-04T23:36:09.333Z,9.17
2023-02-04T23:39:13.377Z,9.00
2023-02-04T23:42:17.271Z,8.73
2023-02-04T23:45:22.598Z,8.77
2023-02-04T23:48:25.990Z,8.27
2023-02-04T23:51:29.440Z,11.60
2023-02-04T23:54:32.727Z,12.10
2023-02-04T23:57:36.375Z,14.07
